In Rescue
 
Open Full Screen Window  High Contrast Mode
Wind Gusting 18 knots
15
April 20, 2024 9:22 AM CDT
Weather Information
Wind Direction
  310 °
Wind Speed
  15 kt (17 mph)
Wind Gust
  18 kt (21 mph)
Altimeter
30.36 in
Visibility
10 SM
Temperature
02° C
36° F
Dewpoint
-06° C
21° F
Humidity
55%
Sky Condition
Scattered @ 3,000 ft
VFR

METAR KETH 201422Z AUTO 31015G18KT 10SM SCT030 02/M06 A3036 RMK AO2

FAA Disclaimer: The data displayed is for advisory purposes only and is not to be used for flight planning or operations.